createdAt,value
2022-08-28T02:19:16.192Z,22.02
2022-08-28T02:21:43.789Z,22.03
2022-08-28T02:24:10.962Z,22.03
2022-08-28T02:29:28.082Z,22.00
2022-08-28T02:31:58.006Z,21.99
2022-08-28T02:34:25.375Z,22.02
2022-08-28T02:36:55.077Z,21.96
2022-08-28T02:39:23.677Z,21.98
2022-08-28T02:41:51.600Z,22.00
2022-08-28T02:44:19.961Z,21.99
2022-08-28T02:50:33.555Z,21.98
2022-08-28T02:53:02.521Z,21.99
2022-08-28T02:55:34.212Z,22.01
2022-08-28T02:58:02.626Z,22.15
2022-08-28T03:00:30.130Z,22.02
2022-08-28T03:02:57.773Z,22.07
2022-08-28T03:05:28.474Z,22.15
2022-08-28T03:08:22.551Z,22.15
2022-08-28T03:10:58.308Z,22.15
2022-08-28T03:13:38.469Z,22.00
2022-08-28T03:16:09.297Z,22.06
2022-08-28T03:18:46.452Z,22.05
2022-08-28T03:24:11.498Z,22.03
2022-08-28T03:26:47.865Z,22.01
2022-08-28T03:29:23.052Z,22.07
2022-08-28T03:32:00.419Z,22.01
2022-08-28T03:37:19.645Z,21.98
2022-08-28T03:40:00.334Z,21.98
2022-08-28T03:42:53.523Z,22.03
2022-08-28T03:45:37.890Z,22.12
2022-08-28T03:54:31.874Z,21.99
2022-08-28T03:56:59.225Z,22.13
2022-08-28T03:59:29.784Z,22.06
2022-08-28T04:02:01.599Z,21.96
2022-08-28T04:04:29.390Z,22.02
2022-08-28T04:06:57.668Z,22.01
2022-08-28T04:09:26.489Z,22.03
2022-08-28T04:11:54.428Z,22.01
2022-08-28T04:14:22.188Z,22.11
2022-08-28T04:16:49.904Z,21.97
2022-08-28T04:19:17.314Z,22.08
2022-08-28T04:21:45.695Z,22.00
2022-08-28T04:24:13.386Z,21.96
2022-08-28T04:26:42.099Z,22.02
2022-08-28T04:34:10.835Z,21.98
2022-08-28T04:36:38.706Z,21.88
2022-08-28T04:39:06.376Z,21.94
2022-08-28T04:41:37.194Z,21.93
2022-08-28T04:44:05.107Z,21.92
2022-08-28T05:31:50.589Z,21.90
2022-08-28T05:34:18.869Z,22.00
2022-08-28T05:36:46.061Z,22.03
2022-08-28T05:39:14.521Z,21.95
2022-08-28T05:45:01.582Z,21.95
2022-08-28T05:47:31.924Z,21.96
2022-08-28T05:53:16.287Z,22.02
2022-08-28T05:55:44.351Z,22.16
2022-08-28T05:58:32.562Z,22.15
2022-08-28T06:01:09.954Z,22.19
2022-08-28T06:03:37.818Z,22.21
2022-08-28T06:06:05.230Z,22.22
2022-08-28T06:08:33.134Z,22.25
2022-08-28T06:11:02.502Z,22.26
2022-08-28T06:13:32.087Z,22.28
2022-08-28T06:15:59.430Z,22.19
2022-08-28T06:18:26.622Z,22.19
2022-08-28T06:20:53.850Z,22.22
2022-08-28T06:23:24.042Z,22.19
2022-08-28T06:25:51.703Z,22.24
2022-08-28T06:28:23.469Z,22.33
2022-08-28T06:31:17.974Z,22.35
2022-08-28T06:33:38.791Z,22.23
2022-08-28T06:36:06.166Z,22.23
2022-08-28T06:38:34.056Z,22.26
2022-08-28T06:41:02.719Z,22.41
2022-08-28T06:43:30.044Z,22.33
2022-08-28T06:45:57.982Z,22.38
2022-08-28T06:48:27.647Z,22.33
2022-08-28T06:50:55.266Z,22.32
2022-08-28T06:53:25.006Z,22.46
2022-08-28T06:56:08.795Z,22.49
2022-08-28T06:58:43.412Z,22.46
2022-08-28T07:01:24.547Z,22.51
2022-08-28T07:03:53.357Z,22.52
2022-08-28T07:06:21.736Z,22.46
2022-08-28T07:08:48.921Z,22.56
2022-08-28T07:11:28.117Z,22.56
2022-08-28T07:13:55.552Z,22.53
2022-08-28T07:16:32.973Z,22.52
2022-08-28T07:19:31.154Z,22.50
2022-08-28T07:22:04.608Z,22.58
2022-08-28T07:24:31.482Z,22.42
2022-08-28T07:27:01.736Z,22.59
2022-08-28T07:29:33.271Z,22.54
2022-08-28T07:32:02.079Z,22.53
2022-08-28T07:34:29.287Z,22.56
2022-08-28T07:36:58.518Z,22.55
2022-08-28T07:39:26.718Z,22.66
2022-08-28T07:41:56.285Z,22.72
2022-08-28T07:44:41.840Z,22.65
2022-08-28T07:47:09.837Z,22.67
2022-08-28T07:49:37.355Z,22.62
2022-08-28T07:52:41.561Z,22.71
2022-08-28T07:55:09.484Z,22.63
2022-08-28T07:57:36.678Z,22.83
2022-08-28T08:00:12.221Z,22.74
2022-08-28T08:02:39.307Z,22.85
2022-08-28T08:05:07.602Z,22.86
2022-08-28T08:07:52.558Z,22.79
2022-08-28T08:10:23.999Z,22.81
2022-08-28T08:12:55.053Z,22.74
2022-08-28T08:15:44.214Z,22.79
2022-08-28T08:18:24.612Z,22.79
2022-08-28T08:21:29.649Z,22.76
2022-08-28T08:23:58.515Z,22.78
2022-08-28T08:26:47.008Z,22.81
2022-08-28T08:44:33.531Z,22.81
2022-08-28T08:47:41.721Z,22.92
2022-08-28T08:50:17.213Z,22.95
2022-08-28T08:53:05.569Z,22.98
2022-08-28T08:55:54.845Z,22.84
2022-08-28T08:58:38.740Z,22.90
2022-08-28T09:36:39.765Z,23.06
2022-08-28T09:39:57.702Z,22.99
2022-08-28T09:43:02.053Z,22.96
2022-08-28T10:10:18.499Z,23.18
2022-08-28T10:13:01.606Z,23.25
2022-08-28T10:39:32.243Z,23.65
2022-08-28T10:45:40.953Z,23.69
2022-08-28T10:48:43.575Z,23.80
2022-08-28T10:51:51.326Z,24.06
2022-08-28T10:58:01.613Z,24.09
2022-08-28T11:00:36.655Z,24.21
2022-08-28T11:03:22.191Z,24.42
2022-08-28T11:06:11.793Z,24.50
2022-08-28T11:08:39.934Z,24.51
2022-08-28T11:11:32.039Z,24.64
2022-08-28T11:14:00.724Z,24.71
2022-08-28T11:20:13.806Z,25.02
2022-08-28T11:22:43.947Z,25.14
2022-08-28T11:25:32.711Z,25.24
2022-08-28T11:28:21.724Z,25.49
2022-08-28T11:31:19.001Z,25.61
2022-08-28T11:34:05.191Z,25.58
2022-08-28T11:36:32.825Z,25.87
2022-08-28T11:39:38.963Z,25.86
2022-08-28T11:42:38.071Z,26.17
2022-08-28T11:45:46.603Z,26.26
2022-08-28T11:52:08.830Z,26.52
2022-08-28T12:01:50.863Z,27.08
2022-08-28T12:05:03.266Z,27.19
2022-08-28T12:07:44.793Z,27.18
2022-08-28T12:10:49.667Z,27.37
2022-08-28T13:52:45.908Z,27.71
2022-08-28T15:17:41.069Z,27.33
2022-08-28T15:28:13.646Z,27.08
2022-08-28T15:31:21.834Z,27.14
2022-08-28T15:53:11.740Z,26.91
2022-08-28T15:55:39.044Z,26.86
2022-08-28T15:58:14.012Z,26.91
2022-08-28T16:10:26.965Z,26.64
2022-08-28T16:16:40.772Z,26.49
2022-08-28T16:26:16.329Z,26.46
2022-08-28T16:42:06.244Z,26.07
2022-08-28T16:51:40.206Z,26.04
2022-08-28T17:00:16.702Z,25.89
2022-08-28T17:06:47.909Z,25.78
2022-08-28T17:58:44.277Z,25.11
2022-08-28T18:05:15.731Z,25.00
2022-08-28T18:14:24.121Z,24.77
2022-08-28T18:17:22.780Z,24.71
2022-08-28T18:20:07.875Z,24.81
2022-08-28T18:22:40.928Z,24.72
2022-08-28T18:25:32.857Z,24.66
2022-08-28T18:28:14.916Z,24.68
2022-08-28T18:30:47.161Z,24.59
2022-08-28T18:33:17.140Z,24.64
2022-08-28T18:35:49.194Z,24.52
2022-08-28T18:38:17.028Z,24.65
2022-08-28T18:40:45.065Z,24.60
2022-08-28T18:43:30.977Z,24.51
2022-08-28T18:46:00.051Z,24.43
2022-08-28T18:48:28.568Z,24.44
2022-08-28T18:50:56.087Z,24.38
2022-08-28T18:53:23.521Z,24.47
2022-08-28T18:56:29.547Z,24.35
2022-08-28T18:59:04.826Z,24.24
2022-08-28T19:01:33.192Z,24.20
2022-08-28T19:04:29.674Z,24.35
2022-08-28T19:06:59.562Z,24.31
2022-08-28T19:13:13.057Z,24.04
2022-08-28T19:15:51.070Z,24.11
2022-08-28T19:18:19.889Z,24.02
2022-08-28T19:20:48.555Z,24.12
2022-08-28T19:23:17.903Z,24.07
2022-08-28T19:25:45.209Z,24.00
2022-08-28T19:28:12.497Z,24.07
2022-08-28T19:30:39.969Z,24.05
2022-08-28T19:33:07.245Z,23.93
2022-08-28T19:35:34.390Z,23.97
2022-08-28T19:38:02.458Z,24.02
2022-08-28T19:40:30.049Z,23.91
2022-08-28T19:42:57.625Z,23.88
2022-08-28T19:45:24.845Z,23.87
2022-08-28T19:47:52.597Z,23.82
2022-08-28T19:50:19.993Z,23.83
2022-08-28T19:52:47.223Z,23.82
2022-08-28T19:55:20.124Z,23.78
2022-08-28T19:57:48.587Z,23.78
2022-08-28T20:00:20.368Z,23.86
2022-08-28T20:02:48.371Z,23.73
2022-08-28T20:05:15.864Z,23.82
2022-08-28T20:07:43.058Z,23.67
2022-08-28T20:10:10.686Z,23.69
2022-08-28T20:12:48.533Z,23.64
2022-08-28T20:15:38.126Z,23.77
2022-08-28T20:18:10.464Z,23.66
2022-08-28T20:20:38.224Z,23.66
2022-08-28T20:23:06.209Z,23.70
2022-08-28T20:25:37.925Z,23.62
2022-08-28T20:28:05.162Z,23.57
2022-08-28T20:30:33.355Z,23.55
2022-08-28T20:33:00.829Z,23.56
2022-08-28T20:35:29.606Z,23.53
2022-08-28T20:37:57.874Z,23.51
2022-08-28T20:40:25.225Z,23.53
2022-08-28T20:42:52.737Z,23.48
2022-08-28T20:45:20.176Z,23.54
2022-08-28T20:47:47.377Z,23.48
2022-08-28T20:50:16.647Z,23.46
2022-08-28T20:52:43.746Z,23.39
2022-08-28T20:55:15.742Z,23.41
2022-08-28T20:57:42.943Z,23.34
2022-08-28T21:00:11.112Z,23.31
2022-08-28T21:02:38.944Z,23.34
2022-08-28T21:05:06.620Z,23.44
2022-08-28T21:07:35.660Z,23.45
2022-08-28T21:10:07.740Z,23.30
2022-08-28T21:12:36.462Z,23.29
2022-08-28T21:15:05.120Z,23.30
2022-08-28T21:17:32.682Z,23.28
2022-08-28T21:20:05.213Z,23.33
2022-08-28T21:22:34.561Z,23.23
2022-08-28T21:25:02.704Z,23.16
2022-08-28T21:27:30.506Z,23.28
2022-08-28T21:29:58.921Z,23.19
2022-08-28T21:32:26.781Z,23.32
2022-08-28T21:34:55.299Z,23.14
